Time;durP1;ratioP1;P1;durP2;ratioP2;P2;SDS_P1;SDS_P2;PMS_P1;PMS_P2;Temp;Humidity;BMP_temperature;BMP_pressure;BME280_temperature;BME280_humidity;BME280_pressure;Samples;Min_cycle;Max_cycle;Signal;HPM_P1;HPM_P2
2021/07/07 00:02:00;;;;;;;2.45;1.20;;;;;;;17.26;89.56;93173.22;5032128;28;20417;-90
2021/07/07 00:04:27;;;;;;;1.58;1.10;;;;;;;17.25;89.77;93169.06;5031755;28;20057;-89
2021/07/07 00:06:55;;;;;;;2.60;1.88;;;;;;;17.18;89.92;93164.84;5031752;28;20045;-90
2021/07/07 00:09:23;;;;;;;2.17;1.20;;;;;;;17.14;90.59;93169.00;5031872;28;20452;-88
2021/07/07 00:11:49;;;;;;;2.78;1.23;;;;;;;17.13;90.76;93171.84;5031754;28;20053;-89
2021/07/07 00:14:16;;;;;;;2.15;1.80;;;;;;;17.18;90.10;93170.06;5031718;28;20518;-89
2021/07/07 00:16:43;;;;;;;2.33;1.67;;;;;;;17.12;90.20;93158.06;5032054;28;20041;-89
2021/07/07 00:19:10;;;;;;;2.38;1.70;;;;;;;17.07;90.53;93164.03;5031767;28;20049;-89
2021/07/07 00:21:37;;;;;;;2.22;1.50;;;;;;;17.02;91.09;93165.78;5031558;28;20091;-89
2021/07/07 00:24:04;;;;;;;2.38;1.35;;;;;;;16.77;91.42;93141.25;5030810;28;20096;-89
2021/07/07 00:26:33;;;;;;;5.13;2.10;;;;;;;16.85;91.50;93151.16;5031214;28;20123;-89
2021/07/07 00:28:59;;;;;;;1.88;1.20;;;;;;;16.80;91.39;93164.88;5031485;28;20096;-89
2021/07/07 00:31:26;;;;;;;3.00;1.65;;;;;;;16.83;91.90;93168.78;5031468;28;20103;-91
2021/07/07 00:33:53;;;;;;;1.42;1.05;;;;;;;16.73;92.68;93166.91;5031583;28;20053;-89
2021/07/07 00:36:19;;;;;;;2.35;1.80;;;;;;;16.65;93.43;93170.75;5031351;28;20103;-90
2021/07/07 00:38:46;;;;;;;1.67;1.45;;;;;;;16.51;93.65;93162.59;5031802;28;20053;-89
2021/07/07 00:41:13;;;;;;;2.05;1.45;;;;;;;16.58;93.80;93174.56;5031086;28;20048;-89
2021/07/07 00:43:42;;;;;;;3.58;1.80;;;;;;;16.59;93.92;93181.31;5031418;28;20057;-90
2021/07/07 00:46:09;;;;;;;3.97;2.00;;;;;;;16.59;93.81;93174.31;5031306;28;20049;-89
2021/07/07 00:48:36;;;;;;;2.38;1.45;;;;;;;16.56;93.86;93175.59;5031324;28;20107;-89
2021/07/07 00:51:03;;;;;;;2.45;1.42;;;;;;;16.49;94.26;93169.06;5030987;28;20107;-89
2021/07/07 00:53:31;;;;;;;3.03;1.50;;;;;;;16.40;94.87;93169.50;5031023;28;20096;-89
2021/07/07 00:55:59;;;;;;;2.63;1.77;;;;;;;16.40;94.95;93176.50;5031056;28;20053;-89
2021/07/07 00:58:27;;;;;;;2.60;1.73;;;;;;;16.39;95.26;93178.31;5031017;28;20140;-89
2021/07/07 01:00:56;;;;;;;1.85;1.45;;;;;;;16.37;95.47;93171.81;5030875;28;20497;-90
2021/07/07 01:03:23;;;;;;;3.92;1.92;;;;;;;16.34;96.57;93174.91;5031020;28;20045;-90
2021/07/07 01:05:49;;;;;;;2.35;1.65;;;;;;;16.35;95.95;93182.44;5030804;28;20049;-89
2021/07/07 01:08:16;;;;;;;3.05;1.85;;;;;;;16.34;96.36;93180.84;5030712;28;20045;-91
2021/07/07 01:10:44;;;;;;;2.60;1.80;;;;;;;16.29;96.29;93179.00;5030771;28;20166;-89
2021/07/07 01:13:12;;;;;;;2.42;1.83;;;;;;;16.16;96.87;93162.03;5030815;28;20046;-89
2021/07/07 01:15:42;;;;;;;3.53;1.90;;;;;;;16.26;96.69;93176.88;5030812;28;20045;-89
2021/07/07 01:18:10;;;;;;;2.28;1.83;;;;;;;16.28;96.90;93180.03;5030805;28;20114;-90
2021/07/07 01:20:39;;;;;;;2.47;1.48;;;;;;;16.29;96.73;93180.81;5030669;28;20485;-90
2021/07/07 01:23:08;;;;;;;1.85;1.30;;;;;;;16.30;96.55;93174.63;5030630;28;20095;-89
2021/07/07 01:25:38;;;;;;;4.70;2.28;;;;;;;16.27;96.37;93181.06;5030593;28;20103;-89
2021/07/07 01:28:06;;;;;;;1.58;1.27;;;;;;;16.22;96.93;93178.44;5030658;28;20136;-89
2021/07/07 01:30:34;;;;;;;2.53;1.17;;;;;;;16.23;96.65;93179.19;5031045;28;20406;-91
2021/07/07 01:33:01;;;;;;;4.00;1.48;;;;;;;16.10;95.58;93165.59;5030744;28;20460;-89
2021/07/07 01:35:28;;;;;;;3.25;1.90;;;;;;;16.16;95.31;93182.75;5032998;28;20053;-90
2021/07/07 01:37:56;;;;;;;2.63;1.48;;;;;;;16.16;95.46;93184.59;5034708;28;20045;-89
2021/07/07 01:40:25;;;;;;;1.80;1.55;;;;;;;16.13;95.40;93185.06;5034797;28;20049;-88
2021/07/07 01:42:53;;;;;;;10.45;2.03;;;;;;;16.11;95.42;93189.72;5034590;28;20068;-89
2021/07/07 01:45:23;;;;;;;2.13;1.52;;;;;;;16.05;95.99;93186.28;5034427;28;20053;-90
2021/07/07 01:47:50;;;;;;;4.78;2.25;;;;;;;16.00;96.62;93178.47;5034366;28;20045;-88
2021/07/07 01:50:17;;;;;;;3.08;2.40;;;;;;;15.89;97.43;93187.91;5034533;28;20045;-89
2021/07/07 01:52:44;;;;;;;2.90;2.00;;;;;;;15.88;97.31;93181.19;5034591;28;20045;-88
2021/07/07 01:55:13;;;;;;;3.40;2.40;;;;;;;15.88;96.86;93189.72;5034349;28;20053;-90
2021/07/07 01:57:44;;;;;;;2.10;1.23;;;;;;;15.80;97.13;93184.19;5034332;28;20060;-89
2021/07/07 02:00:14;;;;;;;3.28;1.73;;;;;;;15.75;98.04;93190.09;5034167;28;20136;-90
2021/07/07 02:02:41;;;;;;;3.45;1.88;;;;;;;15.74;98.64;93191.13;5034397;28;20045;-89
2021/07/07 02:05:10;;;;;;;2.75;2.10;;;;;;;15.69;99.06;93197.00;5033994;28;20049;-90
2021/07/07 02:07:37;;;;;;;3.45;2.17;;;;;;;15.70;99.25;93197.81;5034271;28;20100;-89
2021/07/07 02:10:06;;;;;;;3.58;2.35;;;;;;;15.70;98.49;93198.56;5034122;28;20049;-90
2021/07/07 02:12:33;;;;;;;3.38;1.80;;;;;;;15.77;97.95;93201.78;5034073;28;20490;-89
2021/07/07 02:15:01;;;;;;;3.40;1.88;;;;;;;15.77;97.98;93204.38;5033886;28;20053;-89
2021/07/07 02:17:28;;;;;;;2.47;1.63;;;;;;;15.84;97.41;93206.00;5033947;28;20102;-89
2021/07/07 02:19:55;;;;;;;2.78;1.88;;;;;;;15.87;97.52;93213.25;5033928;28;20057;-90
2021/07/07 02:22:22;;;;;;;3.08;1.75;;;;;;;15.85;97.35;93205.75;5033834;28;20049;-90
2021/07/07 02:24:49;;;;;;;2.47;1.85;;;;;;;15.86;97.25;93214.28;5033676;28;20056;-90
2021/07/07 02:27:15;;;;;;;3.20;2.38;;;;;;;15.86;97.68;93207.31;5033528;28;20064;-91
2021/07/07 02:29:42;;;;;;;3.90;2.28;;;;;;;15.85;98.27;93216.13;5033738;28;20061;-90
2021/07/07 02:32:10;;;;;;;2.42;1.80;;;;;;;15.83;98.11;93212.19;5033616;28;20042;-89
2021/07/07 02:34:37;;;;;;;4.80;2.58;;;;;;;15.80;98.22;93210.09;5033588;28;20088;-89
2021/07/07 02:37:04;;;;;;;3.08;1.98;;;;;;;15.81;97.94;93215.03;5033589;28;20057;-88
2021/07/07 02:39:31;;;;;;;2.63;1.67;;;;;;;15.82;97.42;93210.63;5033552;28;20041;-89
2021/07/07 02:41:58;;;;;;;8.63;2.00;;;;;;;15.75;96.77;93219.34;5033323;28;20046;-89
2021/07/07 02:44:24;;;;;;;2.78;1.98;;;;;;;15.68;96.87;93212.78;5033705;28;20057;-89
2021/07/07 02:46:51;;;;;;;1.65;1.23;;;;;;;15.61;97.24;93215.56;5032476;28;20520;-89
2021/07/07 02:49:20;;;;;;;2.83;1.67;;;;;;;15.58;97.58;93216.03;5033326;28;20053;-88
2021/07/07 02:51:47;;;;;;;2.55;2.03;;;;;;;15.47;97.04;93212.56;5033426;28;20049;-88
2021/07/07 02:54:14;;;;;;;2.78;1.65;;;;;;;15.56;97.08;93221.44;5033325;28;20104;-88
2021/07/07 02:56:41;;;;;;;2.63;2.00;;;;;;;15.55;97.16;93221.72;5033103;28;20049;-89
2021/07/07 02:59:07;;;;;;;3.22;2.25;;;;;;;15.46;97.38;93218.75;5033054;28;20041;-88
2021/07/07 03:01:34;;;;;;;3.08;2.15;;;;;;;15.46;97.74;93229.13;5033056;28;20053;-89
2021/07/07 03:04:01;;;;;;;3.40;2.03;;;;;;;15.43;98.15;93219.22;5033043;28;20045;-89
2021/07/07 03:06:29;;;;;;;4.95;1.50;;;;;;;15.39;98.63;93223.31;5033000;28;20056;-89
2021/07/07 03:08:58;;;;;;;4.28;2.75;;;;;;;15.34;99.59;93224.03;5032905;28;20053;-90
2021/07/07 03:11:25;;;;;;;2.55;1.63;;;;;;;15.29;100.00;93219.56;5033169;28;20052;-89
2021/07/07 03:13:52;;;;;;;3.28;1.95;;;;;;;15.33;100.00;93225.06;5033021;28;20045;-89
2021/07/07 03:16:19;;;;;;;2.70;2.13;;;;;;;15.31;100.00;93227.88;5032965;28;20045;-90
2021/07/07 03:18:46;;;;;;;2.13;1.63;;;;;;;15.34;100.00;93230.00;5032798;28;20493;-89
2021/07/07 03:21:12;;;;;;;2.83;2.25;;;;;;;15.34;100.00;93224.03;5032709;28;20053;-90
2021/07/07 03:23:41;;;;;;;2.00;1.42;;;;;;;15.38;100.00;93230.31;5032555;28;20476;-91
2021/07/07 03:26:08;;;;;;;2.78;1.67;;;;;;;15.38;100.00;93232.88;5032755;28;20068;-90
2021/07/07 03:28:34;;;;;;;4.22;2.28;;;;;;;15.42;100.00;93233.19;5032861;28;20127;-89
2021/07/07 03:31:01;;;;;;;3.47;2.05;;;;;;;15.50;99.92;93232.75;5032591;28;20041;-89
2021/07/07 03:33:28;;;;;;;3.70;2.92;;;;;;;15.55;99.56;93232.06;5032499;28;20429;-89
2021/07/07 03:35:55;;;;;;;4.35;2.45;;;;;;;15.57;98.89;93241.16;5032432;28;20046;-89
2021/07/07 03:38:24;;;;;;;4.13;2.55;;;;;;;15.59;98.10;93239.09;5032387;28;20413;-88
2021/07/07 03:40:52;;;;;;;3.88;1.88;;;;;;;15.55;98.60;93238.00;5032323;28;20049;-89
2021/07/07 03:43:19;;;;;;;2.97;1.83;;;;;;;15.54;98.64;93244.22;5032255;28;20052;-90
2021/07/07 03:45:45;;;;;;;4.32;2.45;;;;;;;15.50;99.09;93246.50;5032138;28;20457;-90
2021/07/07 03:48:12;;;;;;;3.28;2.10;;;;;;;15.52;99.12;93241.09;5032377;28;20064;-89
2021/07/07 03:50:39;;;;;;;4.50;3.35;;;;;;;15.54;98.32;93238.25;5032204;28;20053;-90
2021/07/07 03:53:08;;;;;;;4.55;2.60;;;;;;;15.44;98.25;93219.00;5032438;28;20195;-90
2021/07/07 03:55:36;;;;;;;4.75;2.22;;;;;;;15.61;98.53;93250.00;5032328;28;20057;-91
2021/07/07 03:58:04;;;;;;;2.42;2.05;;;;;;;15.68;98.98;93257.59;5031131;28;20052;-89
2021/07/07 04:00:32;;;;;;;4.38;2.97;;;;;;;15.62;99.28;93235.25;5032178;28;20053;-90
2021/07/07 04:03:00;;;;;;;3.15;2.58;;;;;;;15.67;99.00;93232.72;5031927;28;20057;-88
2021/07/07 04:05:27;;;;;;;2.47;2.03;;;;;;;15.82;99.02;93252.06;5031836;28;20064;-89
2021/07/07 04:07:54;;;;;;;3.60;1.55;;;;;;;15.92;98.78;93256.59;5032072;28;20095;-89
2021/07/07 04:10:21;;;;;;;3.50;2.55;;;;;;;15.98;99.06;93255.66;5031755;28;20049;-90
2021/07/07 04:12:50;;;;;;;6.75;2.88;;;;;;;15.98;99.23;93258.25;5032343;28;20103;-89
2021/07/07 04:15:19;;;;;;;3.33;2.00;;;;;;;15.85;100.00;93226.47;5031772;28;20054;-89
2021/07/07 04:17:46;;;;;;;4.57;2.80;;;;;;;15.84;100.00;93237.06;5031596;28;20049;-89
2021/07/07 04:20:16;;;;;;;3.60;2.60;;;;;;;15.97;100.00;93247.09;5031895;28;20076;-89
2021/07/07 04:22:43;;;;;;;3.58;2.67;;;;;;;16.11;99.33;93246.72;5031743;28;20448;-88
2021/07/07 04:25:13;;;;;;;4.20;2.63;;;;;;;16.25;99.22;93247.91;5031671;28;20053;-89
2021/07/07 04:27:41;;;;;;;5.97;2.45;;;;;;;16.33;99.64;93248.50;5031463;28;20104;-91
2021/07/07 04:30:10;;;;;;;2.75;2.05;;;;;;;16.51;98.63;93255.94;5031476;28;20049;-89
2021/07/07 04:32:38;;;;;;;3.15;2.33;;;;;;;16.63;98.67;93263.56;5031313;28;20057;-90
2021/07/07 04:35:07;;;;;;;5.45;2.33;;;;;;;16.74;99.29;93259.25;5031693;28;20171;-89
2021/07/07 04:37:34;;;;;;;3.40;1.98;;;;;;;16.83;98.19;93267.34;5031505;28;20045;-89
2021/07/07 04:40:01;;;;;;;5.15;2.30;;;;;;;16.96;97.43;93273.94;5031301;28;20053;-90
2021/07/07 04:42:28;;;;;;;5.88;2.50;;;;;;;17.07;97.15;93269.63;5031209;28;20046;-88
2021/07/07 04:44:54;;;;;;;4.45;2.25;;;;;;;17.16;96.41;93272.56;5031062;28;20049;-90
2021/07/07 04:47:21;;;;;;;7.05;2.25;;;;;;;17.21;95.41;93262.22;5031297;28;20057;-88
2021/07/07 04:49:49;;;;;;;9.55;3.20;;;;;;;17.38;95.93;93261.28;5031255;28;20056;-89
2021/07/07 04:52:16;;;;;;;3.33;2.60;;;;;;;17.42;94.29;93259.75;5031267;28;20049;-89
2021/07/07 04:54:43;;;;;;;3.00;2.05;;;;;;;17.54;96.04;93267.34;5031159;28;20099;-88
2021/07/07 04:57:10;;;;;;;2.83;2.13;;;;;;;17.67;94.07;93268.72;5031018;28;20490;-89
2021/07/07 04:59:37;;;;;;;5.72;2.92;;;;;;;17.70;95.15;93268.22;5030858;28;20053;-89
2021/07/07 05:02:04;;;;;;;3.85;2.30;;;;;;;17.76;94.85;93275.78;5031151;28;20460;-88
2021/07/07 05:04:31;;;;;;;3.40;1.90;;;;;;;17.96;93.25;93273.53;5031146;28;20069;-89
2021/07/07 05:06:59;;;;;;;4.97;2.63;;;;;;;18.00;94.93;93274.56;5030770;28;20049;-88
2021/07/07 05:09:26;;;;;;;3.53;2.28;;;;;;;18.12;92.20;93269.97;5030578;28;20053;-90
2021/07/07 05:11:53;;;;;;;3.38;2.47;;;;;;;18.24;92.60;93254.16;5030834;28;20041;-90
2021/07/07 05:14:20;;;;;;;3.75;1.90;;;;;;;18.25;91.47;93267.94;5031254;28;20061;-91
2021/07/07 05:16:47;;;;;;;3.33;2.42;;;;;;;18.33;91.46;93264.06;5030755;28;20536;-90
2021/07/07 05:19:14;;;;;;;3.00;2.13;;;;;;;18.39;91.98;93253.41;5030798;28;20544;-89
2021/07/07 05:21:42;;;;;;;3.95;2.40;;;;;;;18.67;90.18;93272.19;5030775;28;20060;-89
2021/07/07 05:24:10;;;;;;;5.40;2.55;;;;;;;18.78;91.90;93272.19;5030619;28;20056;-89
2021/07/07 05:26:37;;;;;;;3.05;2.60;;;;;;;18.78;91.27;93278.19;5030477;28;20076;-88
2021/07/07 05:29:04;;;;;;;2.22;2.03;;;;;;;18.99;88.90;93278.19;5030706;28;20045;-89
2021/07/07 05:31:32;;;;;;;6.97;3.05;;;;;;;19.09;89.00;93272.22;5028174;28;20049;-90
2021/07/07 05:33:59;;;;;;;3.42;1.95;;;;;;;19.18;88.83;93278.47;5030772;28;20053;-89
2021/07/07 05:36:26;;;;;;;2.75;2.15;;;;;;;19.26;88.13;93279.00;5030596;28;20042;-90
2021/07/07 05:38:52;;;;;;;3.45;1.85;;;;;;;19.48;87.22;93281.28;5030373;28;20046;-89
2021/07/07 05:41:21;;;;;;;3.72;2.40;;;;;;;19.72;85.54;93272.94;5030450;28;20053;-88
2021/07/07 05:43:52;;;;;;;7.45;4.45;;;;;;;19.99;84.25;93282.22;5024832;28;20053;-89
2021/07/07 05:46:19;;;;;;;5.20;2.97;;;;;;;20.21;83.61;93283.72;5020895;28;20417;-89
2021/07/07 05:48:46;;;;;;;6.80;3.80;;;;;;;20.49;81.23;93289.31;5024969;28;20049;-88
2021/07/07 05:51:13;;;;;;;7.80;3.70;;;;;;;20.77;80.89;93289.66;5030577;28;20049;-86
2021/07/07 05:53:40;;;;;;;4.32;3.28;;;;;;;21.00;79.76;93282.22;5030285;28;20457;-89
2021/07/07 05:56:07;;;;;;;9.45;3.92;;;;;;;21.31;78.75;93289.81;5030283;28;20482;-87
2021/07/07 05:58:35;;;;;;;5.68;3.70;;;;;;;21.55;78.01;93286.47;5030627;28;20456;-90
2021/07/07 06:01:02;;;;;;;5.63;3.65;;;;;;;21.79;77.45;93286.50;5030455;28;20099;-87
2021/07/07 06:03:29;;;;;;;7.25;4.35;;;;;;;22.09;75.11;93282.00;5027410;28;20401;-89
2021/07/07 06:05:56;;;;;;;6.57;3.47;;;;;;;;;;5025332;28;20413;-89
2021/07/07 06:08:23;;;;;;;5.80;3.25;;;;;;;22.39;73.38;93282.69;5030643;28;20056;-88
2021/07/07 06:10:49;;;;;;;6.70;3.03;;;;;;;22.67;72.61;93284.69;5030327;28;20049;-87
2021/07/07 06:13:16;;;;;;;7.45;3.40;;;;;;;22.97;71.34;93285.31;5029934;28;20042;-89
2021/07/07 06:15:44;;;;;;;4.40;2.65;;;;;;;22.84;71.58;93284.19;5029955;28;20049;-89
2021/07/07 06:18:11;;;;;;;4.38;2.40;;;;;;;22.80;70.95;93293.66;5030192;28;20502;-89
2021/07/07 06:20:38;;;;;;;3.75;2.60;;;;;;;22.93;71.48;93284.31;5030051;28;20054;-89
2021/07/07 06:23:05;;;;;;;6.35;3.33;;;;;;;23.16;70.25;93287.13;5033393;28;20056;-88
2021/07/07 06:25:32;;;;;;;6.72;3.72;;;;;;;23.32;70.38;93296.31;5034038;28;20122;-86
2021/07/07 06:28:00;;;;;;;7.15;3.15;;;;;;;23.65;69.46;93297.34;5033621;28;20070;-88
2021/07/07 06:30:28;;;;;;;4.75;3.05;;;;;;;23.95;67.24;93290.75;5033400;28;20041;-90
2021/07/07 06:33:00;;;;;;;7.15;2.72;;;;;;;24.16;66.30;93295.63;5032334;28;20551;-88
2021/07/07 06:35:30;;;;;;;7.32;3.35;;;;;;;24.45;65.63;93294.53;5033486;28;20049;-88
2021/07/07 06:37:57;;;;;;;5.10;2.38;;;;;;;24.56;64.66;93300.34;5033390;28;20418;-88
2021/07/07 06:40:25;;;;;;;3.53;2.30;;;;;;;24.75;62.89;93297.56;5033484;28;20057;-86
2021/07/07 06:42:53;;;;;;;6.57;3.08;;;;;;;24.97;61.76;93298.69;5033493;28;20489;-90
2021/07/07 06:45:21;;;;;;;4.43;2.42;;;;;;;25.42;60.72;93297.13;5033458;28;20504;-88
2021/07/07 06:47:48;;;;;;;3.97;2.00;;;;;;;25.88;59.39;93292.56;5033134;28;20394;-89
2021/07/07 06:50:17;;;;;;;5.50;2.28;;;;;;;26.02;58.70;93274.78;5033312;28;20067;-87
2021/07/07 06:52:45;;;;;;;4.43;2.53;;;;;;;26.48;57.94;93279.88;5033488;28;20128;-86
2021/07/07 06:55:12;;;;;;;2.42;2.05;;;;;;;26.58;56.72;93281.44;5033413;28;20410;-87
2021/07/07 06:57:40;;;;;;;6.45;3.55;;;;;;;26.54;55.95;93278.66;5033267;28;20053;-87
2021/07/07 07:00:09;;;;;;;3.97;2.35;;;;;;;26.87;55.89;93285.31;5033024;28;20060;-91
2021/07/07 07:02:36;;;;;;;4.05;2.70;;;;;;;26.74;56.07;93281.75;5033021;28;20494;-90
2021/07/07 07:05:03;;;;;;;6.85;2.75;;;;;;;26.63;55.89;93288.41;5033279;28;20041;-88
2021/07/07 07:07:31;;;;;;;4.13;2.83;;;;;;;26.79;54.79;93283.44;5033134;28;20045;-88
2021/07/07 07:09:59;;;;;;;3.95;2.78;;;;;;;27.24;54.93;93282.38;5032062;28;20540;-87
2021/07/07 07:12:26;;;;;;;4.85;2.35;;;;;;;26.50;55.94;93287.47;5032794;28;20057;-89
2021/07/07 07:14:53;;;;;;;4.53;2.78;;;;;;;26.84;55.71;93275.38;5031677;28;20045;-88
2021/07/07 07:17:21;;;;;;;3.90;2.50;;;;;;;27.53;54.35;93277.50;5031740;28;20505;-88
2021/07/07 07:19:48;;;;;;;9.18;3.17;;;;;;;27.85;54.08;93272.72;5032908;28;20049;-90
2021/07/07 07:22:16;;;;;;;6.03;2.75;;;;;;;27.23;54.77;93267.63;5032870;28;20136;-89
2021/07/07 07:24:45;;;;;;;4.65;2.50;;;;;;;27.98;52.93;93287.59;5032772;28;20046;-89
2021/07/07 07:27:12;;;;;;;5.35;2.20;;;;;;;28.33;53.83;93278.72;5032732;28;20057;-88
2021/07/07 07:29:41;;;;;;;3.30;2.30;;;;;;;28.59;51.71;93284.97;5032513;28;20050;-90
2021/07/07 07:32:08;;;;;;;3.47;2.13;;;;;;;28.92;51.61;93271.81;5032170;28;20106;-87
2021/07/07 07:34:35;;;;;;;2.95;2.03;;;;;;;29.28;50.67;93274.91;5032464;28;20091;-87
2021/07/07 07:37:03;;;;;;;3.70;2.50;;;;;;;29.32;49.56;93278.44;5032585;28;20046;-88
2021/07/07 07:39:40;;;;;;;4.05;2.28;;;;;;;28.94;49.89;93253.75;5029015;28;20089;-88
2021/07/07 07:42:12;;;;;;;5.40;2.58;;;;;;;29.51;48.96;93277.19;5011148;28;20065;-87
2021/07/07 07:44:39;;;;;;;5.40;1.90;;;;;;;29.85;48.75;93274.47;5011941;28;20049;-86
2021/07/07 07:47:06;;;;;;;3.70;2.78;;;;;;;30.03;47.43;93276.91;5012103;28;20091;-89
2021/07/07 07:49:33;;;;;;;3.50;2.08;;;;;;;29.30;49.17;93262.13;5012404;28;20078;-87
2021/07/07 07:52:00;;;;;;;3.08;1.85;;;;;;;29.24;48.97;93279.28;5012934;28;20064;-87
2021/07/07 07:54:28;;;;;;;5.00;2.33;;;;;;;29.87;48.44;93281.00;5012138;28;20054;-86
2021/07/07 07:56:55;;;;;;;4.90;2.95;;;;;;;30.18;46.50;93278.13;5012472;28;20046;-87
2021/07/07 07:59:23;;;;;;;2.70;1.75;;;;;;;30.13;46.97;93284.44;5012427;28;20046;-88
2021/07/07 08:01:50;;;;;;;2.30;1.92;;;;;;;30.60;45.49;93277.88;5012092;28;20042;-89
2021/07/07 08:04:18;;;;;;;3.47;1.95;;;;;;;30.50;46.79;93278.31;5012216;28;20053;-88
2021/07/07 08:06:45;;;;;;;4.53;2.75;;;;;;;30.96;45.63;93280.75;5012108;28;20077;-84
2021/07/07 08:09:12;;;;;;;3.10;1.83;;;;;;;31.10;43.62;93279.59;5012008;28;20049;-88
2021/07/07 08:11:39;;;;;;;2.17;1.38;;;;;;;31.11;43.52;93270.53;5012345;28;20049;-87
2021/07/07 08:14:06;;;;;;;3.42;2.13;;;;;;;31.06;43.23;93276.84;5011972;28;20552;-88
2021/07/07 08:16:34;;;;;;;2.70;1.42;;;;;;;31.22;43.62;93284.06;5012367;28;20104;-87
2021/07/07 08:19:01;;;;;;;4.00;2.03;;;;;;;31.37;42.23;93283.34;5011946;28;20049;-85
2021/07/07 08:21:28;;;;;;;3.20;1.77;;;;;;;30.64;43.85;93294.63;5011739;28;20050;-87
2021/07/07 08:23:54;;;;;;;2.78;1.27;;;;;;;29.60;43.53;93293.75;5011792;28;20497;-87
2021/07/07 08:26:21;;;;;;;1.60;1.02;;;;;;;30.02;42.81;93297.31;5011508;28;20057;-88
2021/07/07 08:28:48;;;;;;;2.85;1.73;;;;;;;29.99;42.24;93301.38;5011796;28;20053;-91
2021/07/07 08:31:15;;;;;;;8.02;2.13;;;;;;;30.51;43.60;93293.13;5011771;28;20469;-88
2021/07/07 08:33:43;;;;;;;2.60;0.90;;;;;;;30.64;41.72;93305.22;5011835;28;20092;-87
2021/07/07 08:36:09;;;;;;;1.40;0.90;;;;;;;30.41;41.63;93283.75;5011658;28;20486;-86
2021/07/07 08:38:36;;;;;;;5.97;1.77;;;;;;;30.32;41.13;93297.13;5011781;28;20050;-89
2021/07/07 08:41:03;;;;;;;2.72;1.15;;;;;;;30.43;40.01;93294.78;5011748;28;20096;-83
2021/07/07 08:43:30;;;;;;;1.73;1.00;;;;;;;29.93;42.41;93294.78;5011430;28;20057;-87
2021/07/07 08:45:58;;;;;;;1.67;0.90;;;;;;;29.54;41.32;93291.63;5011084;28;20058;-92
2021/07/07 08:48:25;;;;;;;0.93;0.60;;;;;;;30.10;41.06;93295.69;5011326;28;20083;-87
2021/07/07 08:50:58;;;;;;;2.83;0.93;;;;;;;29.67;41.38;93295.09;5011656;28;20410;-86
2021/07/07 08:53:26;;;;;;;5.18;1.45;;;;;;;29.57;41.71;93296.28;5011588;28;20050;-88
2021/07/07 08:55:54;;;;;;;2.33;1.05;;;;;;;30.11;41.48;93278.69;5011260;28;20042;-89
2021/07/07 08:58:20;;;;;;;2.13;1.08;;;;;;;30.01;41.45;93287.81;5011192;28;20046;-90
2021/07/07 09:00:50;;;;;;;7.80;1.10;;;;;;;29.95;41.21;93303.16;5011262;28;20045;-88
2021/07/07 09:03:18;;;;;;;2.05;1.00;;;;;;;29.96;41.20;93293.34;5011102;28;20132;-90
2021/07/07 09:05:51;;;;;;;1.70;0.93;;;;;;;30.24;40.55;93288.19;5011123;28;20053;-88
2021/07/07 09:08:24;;;;;;;2.05;1.23;;;;;;;29.96;41.36;93294.13;5011285;28;20057;-88
2021/07/07 09:10:52;;;;;;;2.83;1.58;;;;;;;30.08;42.15;93295.97;5011114;28;20062;-84
2021/07/07 09:13:20;;;;;;;1.27;0.70;;;;;;;30.56;40.86;93290.25;5011550;28;20057;-86
2021/07/07 09:15:47;;;;;;;1.98;1.23;;;;;;;29.51;41.12;93292.28;5010967;28;20537;-87
2021/07/07 09:18:22;;;;;;;3.35;1.85;;;;;;;29.78;42.23;93287.47;5010922;28;20050;-86
2021/07/07 09:20:50;;;;;;;0.82;0.52;;;;;;;30.09;40.08;93299.41;5011011;28;20045;-84
2021/07/07 09:23:20;;;;;;;2.00;1.20;;;;;;;29.83;40.14;93284.63;5011013;28;20050;-89
2021/07/07 09:25:51;;;;;;;2.00;1.27;;;;;;;29.53;41.66;93293.50;5010787;28;20537;-83
2021/07/07 09:28:21;;;;;;;1.65;0.95;;;;;;;29.38;40.58;93286.19;5010779;28;20046;-90
2021/07/07 09:30:48;;;;;;;1.85;0.70;;;;;;;29.59;41.88;93294.06;5010919;28;20060;-90
2021/07/07 09:33:15;;;;;;;1.95;0.88;;;;;;;30.03;39.56;93296.19;5011073;28;20041;-89
2021/07/07 09:35:42;;;;;;;1.80;0.93;;;;;;;30.55;40.52;93294.00;5010789;28;20052;-91
2021/07/07 09:38:10;;;;;;;1.55;1.05;;;;;;;30.38;39.42;93297.66;5010996;28;20433;-87
2021/07/07 09:40:42;;;;;;;5.15;1.27;;;;;;;30.40;39.92;93296.22;5010717;28;20072;-84
2021/07/07 09:43:11;;;;;;;1.35;0.93;;;;;;;30.72;40.50;93298.28;5010753;28;20046;-87
2021/07/07 09:45:44;;;;;;;1.55;0.70;;;;;;;30.04;40.52;93291.69;5010951;28;20050;-87
2021/07/07 09:48:12;;;;;;;3.63;1.60;;;;;;;30.50;38.66;93302.19;5010997;28;20054;-89
2021/07/07 09:50:41;;;;;;;2.55;0.90;;;;;;;30.77;40.02;93289.31;5009753;28;20137;-87
2021/07/07 09:53:10;;;;;;;1.50;0.75;;;;;;;31.01;39.11;93285.06;5026028;28;20044;-83
2021/07/07 09:55:37;;;;;;;2.13;1.00;;;;;;;30.56;38.05;93300.06;5031375;28;20068;-81
2021/07/07 09:58:05;;;;;;;2.00;1.10;;;;;;;30.44;39.27;93279.66;5034459;28;20452;-89
2021/07/07 10:00:37;;;;;;;2.05;1.35;;;;;;;30.63;38.52;93276.41;5034424;28;20067;-87
2021/07/07 10:03:06;;;;;;;1.95;0.93;;;;;;;30.59;39.06;93286.91;5034193;28;20046;-89
2021/07/07 10:05:39;;;;;;;1.45;0.80;;;;;;;30.73;39.05;93280.50;5034127;28;20080;-88
2021/07/07 10:08:06;;;;;;;1.50;0.82;;;;;;;31.46;36.77;93277.88;5034026;28;20061;-88
2021/07/07 10:10:33;;;;;;;2.55;1.17;;;;;;;31.09;38.19;93275.41;5016402;28;20092;-84
2021/07/07 10:13:01;;;;;;;2.00;1.00;;;;;;;30.32;37.80;93283.88;5013382;28;20111;-83
2021/07/07 10:15:28;;;;;;;1.67;0.88;;;;;;;30.51;38.63;93277.22;5014354;28;20050;-87
2021/07/07 10:17:56;;;;;;;2.80;1.15;;;;;;;30.84;38.09;93289.53;5014353;28;20050;-85
2021/07/07 10:20:23;;;;;;;1.92;1.35;;;;;;;31.18;35.60;93279.44;5014003;28;20054;-89
2021/07/07 10:22:51;;;;;;;2.08;1.30;;;;;;;31.50;35.78;93285.94;5014083;28;20572;-84
2021/07/07 10:25:22;;;;;;;1.42;0.73;;;;;;;31.38;34.86;93294.75;5013972;28;20058;-87
2021/07/07 10:27:49;;;;;;;1.85;1.20;;;;;;;31.61;35.93;93284.34;5013725;28;20109;-87
2021/07/07 10:30:17;;;;;;;1.77;1.17;;;;;;;32.25;35.12;93280.88;5014324;28;20049;-87
2021/07/07 10:33:10;;;;;;;2.25;1.10;;;;;;;32.30;34.69;93285.94;5013762;28;20049;-88
2021/07/07 10:35:39;;;;;;;2.08;1.40;;;;;;;32.44;34.74;93282.84;5013940;28;20046;-86
2021/07/07 10:38:06;;;;;;;2.03;1.00;;;;;;;32.40;33.81;93295.28;5013819;28;20414;-86
2021/07/07 10:40:37;;;;;;;2.03;1.00;;;;;;;31.59;35.13;93290.00;5013766;28;20049;-87
2021/07/07 10:43:04;;;;;;;1.67;1.05;;;;;;;31.44;35.10;93282.78;5013649;28;20517;-88
2021/07/07 10:45:34;;;;;;;2.33;1.30;;;;;;;31.89;34.71;93274.75;5018459;28;20485;-85
2021/07/07 10:48:28;;;;;;;1.55;0.90;;;;;;;31.91;33.63;93280.50;5033182;28;20065;-87
2021/07/07 10:50:57;;;;;;;2.07;0.87;;;;;;;31.88;35.24;93279.28;5033409;28;20460;-88
2021/07/07 10:53:28;;;;;;;1.42;0.98;;;;;;;32.02;33.66;93265.56;5033436;28;20057;-86
2021/07/07 10:55:55;;;;;;;1.42;0.85;;;;;;;32.20;33.65;93279.28;5033224;28;20422;-84
2021/07/07 10:58:30;;;;;;;2.30;1.13;;;;;;;32.11;33.13;93276.78;5033373;28;20046;-86
2021/07/07 11:00:58;;;;;;;3.88;1.10;;;;;;;32.10;33.20;93269.94;5033248;28;20406;-88
2021/07/07 11:03:32;;;;;;;1.75;1.15;;;;;;;32.00;33.56;93267.81;5033087;28;20053;-86
2021/07/07 11:06:21;;;;;;;1.45;0.75;;;;;;;31.99;33.22;93263.63;5032917;28;20391;-89
2021/07/07 11:08:48;;;;;;;1.52;0.88;;;;;;;32.33;34.17;93261.31;5032177;28;20057;-89
2021/07/07 11:11:23;;;;;;;2.78;1.50;;;;;;;32.21;32.91;93269.41;5033124;28;20050;-85
2021/07/07 11:13:51;;;;;;;2.85;0.93;;;;;;;32.53;33.58;93266.69;5032976;28;20060;-89
2021/07/07 11:16:21;;;;;;;2.72;1.33;;;;;;;32.67;32.74;93260.91;5032817;28;20501;-88
2021/07/07 11:18:49;;;;;;;1.58;1.00;;;;;;;32.84;31.63;93267.69;5032597;28;20148;-85
2021/07/07 11:21:17;;;;;;;3.10;1.25;;;;;;;33.14;32.62;93267.13;5032651;28;20096;-89
2021/07/07 11:23:45;;;;;;;2.10;1.08;;;;;;;33.41;31.13;93256.59;5032061;28;20091;-88
2021/07/07 11:26:13;;;;;;;2.83;1.27;;;;;;;33.22;32.18;93260.06;5032521;28;20379;-87
2021/07/07 11:28:41;;;;;;;1.58;1.02;;;;;;;33.11;31.76;93251.13;5032522;28;20049;-87
2021/07/07 11:31:08;;;;;;;2.90;1.27;;;;;;;33.39;32.16;93255.41;5032314;28;20104;-90
2021/07/07 11:33:35;;;;;;;2.83;1.70;;;;;;;33.88;30.29;93259.28;5032536;28;20494;-87
2021/07/07 11:36:04;;;;;;;2.53;1.13;;;;;;;-147.90;100.00;59510.75;5032739;28;20123;-88
2021/07/07 11:38:31;;;;;;;2.72;1.25;;;;;;;-147.90;100.00;59510.75;5032619;28;20072;-83